Time;durP1;ratioP1;P1;durP2;ratioP2;P2;SDS_P1;SDS_P2;PMS_P1;PMS_P2;Temp;Humidity;BMP_temperature;BMP_pressure;BME280_temperature;BME280_humidity;BME280_pressure;Samples;Min_cycle;Max_cycle;Signal;HPM_P1;HPM_P2
2022/10/07 00:00:15;;;;;;;0.50;0.50;;;;;;;12.32;77.90;100515.59;5031585;28;20644;-68
2022/10/07 00:02:42;;;;;;;0.50;0.50;;;;;;;12.33;77.87;100511.31;5031168;28;20232;-67
2022/10/07 00:05:09;;;;;;;0.70;0.70;;;;;;;12.31;77.60;100507.94;5031949;28;20609;-67
2022/10/07 00:07:37;;;;;;;0.50;0.50;;;;;;;12.29;77.86;100509.69;5029350;28;20205;-68
2022/10/07 00:10:05;;;;;;;0.40;0.40;;;;;;;12.24;77.78;100511.50;5028512;28;20633;-68
2022/10/07 00:12:32;;;;;;;0.50;0.50;;;;;;;12.14;78.21;100507.41;5023329;28;20205;-68
2022/10/07 00:14:59;;;;;;;0.60;0.60;;;;;;;12.13;78.05;100514.28;5018126;28;20205;-69
2022/10/07 00:17:26;;;;;;;0.70;0.70;;;;;;;12.11;77.99;100505.75;5028276;28;20558;-69
2022/10/07 00:19:52;;;;;;;0.90;0.90;;;;;;;12.05;77.89;100511.00;5024217;28;20225;-68
2022/10/07 00:22:19;;;;;;;0.50;0.50;;;;;;;12.02;78.53;100511.03;5031320;28;20201;-68
2022/10/07 00:24:47;;;;;;;0.60;0.60;;;;;;;11.94;79.01;100513.75;5031376;28;20263;-68
2022/10/07 00:27:14;;;;;;;0.50;0.50;;;;;;;11.89;78.89;100510.41;5031974;28;20194;-68
2022/10/07 00:29:41;;;;;;;0.60;0.60;;;;;;;11.82;79.29;100508.00;5019501;28;20190;-68
2022/10/07 00:32:07;;;;;;;0.40;0.40;;;;;;;11.75;79.78;100512.41;5030322;28;20927;-68
2022/10/07 00:34:34;;;;;;;0.50;0.50;;;;;;;11.72;79.84;100507.31;5029131;28;20201;-68
2022/10/07 00:37:01;;;;;;;0.70;0.70;;;;;;;11.72;80.01;100511.59;5024058;28;20201;-68
2022/10/07 00:39:28;;;;;;;0.63;0.63;;;;;;;11.73;80.08;100515.88;5026536;28;20202;-68
2022/10/07 00:41:56;;;;;;;0.53;0.53;;;;;;;11.75;80.03;100514.13;5024191;28;20210;-69
2022/10/07 00:44:41;;;;;;;0.50;0.50;;;;;;;11.77;80.25;100517.50;5031225;28;20209;-67
2022/10/07 00:47:19;;;;;;;0.50;0.50;;;;;;;11.70;80.25;100513.28;5031432;28;20292;-68
2022/10/07 00:49:50;;;;;;;0.70;0.70;;;;;;;11.73;80.42;100513.31;5032147;28;20201;-68
2022/10/07 00:52:20;;;;;;;0.57;0.57;;;;;;;11.68;80.41;100504.78;5024292;28;20205;-68
2022/10/07 00:54:51;;;;;;;0.60;0.60;;;;;;;11.71;80.81;100515.03;5027184;28;20710;-67
2022/10/07 00:57:20;;;;;;;0.57;0.57;;;;;;;11.69;80.78;100507.34;5030003;28;20197;-67
2022/10/07 00:59:47;;;;;;;0.43;0.43;;;;;;;11.62;80.76;100500.59;5028136;28;20687;-69
2022/10/07 01:02:14;;;;;;;0.60;0.60;;;;;;;11.68;80.60;100509.91;5028179;28;20193;-68
2022/10/07 01:04:42;;;;;;;0.50;0.50;;;;;;;11.67;80.16;100510.78;5029982;28;20229;-68
2022/10/07 01:07:09;;;;;;;0.70;0.70;;;;;;;11.57;80.08;100492.97;5025489;28;20213;-68
2022/10/07 01:09:37;;;;;;;0.63;0.63;;;;;;;11.59;80.21;100505.78;5030258;28;20206;-68
2022/10/07 01:12:11;;;;;;;0.50;0.50;;;;;;;11.52;80.33;100509.31;5027697;28;20239;-68
2022/10/07 01:14:52;;;;;;;0.50;0.50;;;;;;;11.48;80.53;100507.66;5020162;28;20198;-67
2022/10/07 01:17:25;;;;;;;0.70;0.70;;;;;;;11.46;81.14;100512.84;5029396;28;20202;-69
2022/10/07 01:20:15;;;;;;;0.60;0.60;;;;;;;11.42;80.73;100513.75;5025556;28;20220;-68
2022/10/07 01:22:53;;;;;;;0.70;0.70;;;;;;;11.35;80.98;100508.72;5020763;28;20662;-68
2022/10/07 01:25:34;;;;;;;0.63;0.63;;;;;;;11.33;81.64;100503.63;5029583;28;20296;-68
2022/10/07 01:28:07;;;;;;;0.60;0.60;;;;;;;11.28;81.38;100502.00;5029560;28;20255;-68
2022/10/07 01:30:40;;;;;;;0.50;0.50;;;;;;;11.33;81.61;100508.78;5026905;28;20255;-68
2022/10/07 01:33:13;;;;;;;0.57;0.57;;;;;;;11.18;82.31;100501.28;5021219;28;20289;-68
2022/10/07 01:35:43;;;;;;;0.60;0.60;;;;;;;11.01;83.02;100500.72;5013950;28;20725;-68
2022/10/07 01:38:12;;;;;;;0.53;0.53;;;;;;;10.97;82.97;100504.19;5024508;28;20197;-68
2022/10/07 01:40:44;;;;;;;0.53;0.53;;;;;;;10.92;83.19;100495.72;5023295;28;20221;-67
2022/10/07 01:43:15;;;;;;;0.50;0.50;;;;;;;10.93;83.65;100498.25;5025139;28;20202;-68
2022/10/07 01:45:43;;;;;;;0.70;0.70;;;;;;;10.95;83.43;100496.50;5030532;28;20197;-68
2022/10/07 01:48:10;;;;;;;0.50;0.50;;;;;;;10.98;83.43;100495.63;5027899;28;20645;-67
2022/10/07 01:50:38;;;;;;;0.60;0.60;;;;;;;11.00;83.20;100494.72;5032590;28;20193;-68
2022/10/07 01:53:26;;;;;;;0.43;0.43;;;;;;;11.03;83.58;100498.97;5021060;28;20201;-68
2022/10/07 01:56:06;;;;;;;0.60;0.60;;;;;;;10.96;83.73;100472.53;5023365;28;20198;-68
2022/10/07 01:58:49;;;;;;;0.70;0.70;;;;;;;11.04;83.51;100495.53;5030447;28;20225;-68
2022/10/07 02:01:22;;;;;;;0.50;0.50;;;;;;;11.02;83.27;100487.00;5034915;28;20216;-68
2022/10/07 02:04:12;;;;;;;0.50;0.50;;;;;;;10.97;83.60;100483.66;5031545;28;20312;-68
2022/10/07 02:06:50;;;;;;;1.03;1.03;;;;;;;10.91;83.94;100488.88;5022128;28;20622;-68
2022/10/07 02:09:25;;;;;;;0.60;0.60;;;;;;;10.94;84.30;100486.25;5021799;28;20212;-68
2022/10/07 02:12:00;;;;;;;0.80;0.80;;;;;;;10.95;84.35;100485.41;5015184;28;20198;-69
2022/10/07 02:14:37;;;;;;;0.50;0.50;;;;;;;10.95;84.23;100480.28;5022583;28;20546;-69
2022/10/07 02:17:11;;;;;;;0.50;0.50;;;;;;;10.93;84.29;100476.88;5024388;28;20558;-67
2022/10/07 02:19:42;;;;;;;0.70;0.70;;;;;;;10.97;84.25;100488.78;5020729;28;20204;-67
2022/10/07 02:22:12;;;;;;;0.53;0.53;;;;;;;10.94;83.66;100486.25;5018809;28;20221;-66
2022/10/07 02:24:42;;;;;;;1.10;1.10;;;;;;;10.90;83.94;100494.88;5029841;28;20201;-67
2022/10/07 02:27:12;;;;;;;0.50;0.50;;;;;;;10.77;84.15;100475.38;5018506;28;20208;-67
2022/10/07 02:29:43;;;;;;;0.47;0.47;;;;;;;10.74;84.16;100472.88;5025103;28;20193;-67
2022/10/07 02:32:12;;;;;;;0.60;0.60;;;;;;;10.83;84.47;100491.53;5016121;28;20375;-68
2022/10/07 02:34:42;;;;;;;0.60;0.60;;;;;;;10.81;84.66;100484.75;5024913;28;20194;-67
2022/10/07 02:37:14;;;;;;;0.63;0.63;;;;;;;10.80;84.58;100480.47;5017850;28;20271;-68
2022/10/07 02:39:42;;;;;;;0.70;0.70;;;;;;;10.82;84.40;100486.44;5027561;28;20197;-68
2022/10/07 02:42:16;;;;;;;0.60;0.60;;;;;;;10.79;84.50;100483.94;5026257;28;20300;-69
2022/10/07 02:44:50;;;;;;;0.60;0.60;;;;;;;10.79;84.65;100479.63;5025680;28;20589;-68
2022/10/07 02:47:22;;;;;;;0.90;0.90;;;;;;;10.79;84.32;100481.38;5027866;28;20209;-68
2022/10/07 02:49:52;;;;;;;0.80;0.80;;;;;;;10.79;83.82;100483.94;5024157;28;20201;-68
2022/10/07 02:52:23;;;;;;;0.60;0.60;;;;;;;10.70;83.94;100484.03;5024131;28;20753;-68
2022/10/07 02:54:57;;;;;;;0.50;0.50;;;;;;;10.63;84.28;100483.25;5012894;28;20205;-67
2022/10/07 02:57:26;;;;;;;0.70;0.70;;;;;;;10.60;83.50;100482.47;5024280;28;20197;-66
2022/10/07 02:59:55;;;;;;;0.70;0.70;;;;;;;10.56;83.69;100484.22;5022330;28;20198;-68
2022/10/07 03:02:27;;;;;;;0.50;0.50;;;;;;;10.51;83.67;100493.69;5023234;28;20276;-68
2022/10/07 03:04:57;;;;;;;0.40;0.40;;;;;;;10.47;83.22;100492.88;5023784;28;20769;-69
2022/10/07 03:07:24;;;;;;;0.70;0.70;;;;;;;10.48;83.15;100492.00;5016920;28;20221;-69
2022/10/07 03:09:51;;;;;;;0.63;0.63;;;;;;;10.45;83.26;100486.91;5022045;28;20644;-68
2022/10/07 03:12:18;;;;;;;0.70;0.70;;;;;;;10.41;83.74;100492.94;5023059;28;20190;-68
2022/10/07 03:14:48;;;;;;;0.50;0.50;;;;;;;10.35;83.96;100495.59;5022926;28;20198;-68
2022/10/07 03:17:16;;;;;;;0.60;0.60;;;;;;;10.29;84.54;100487.13;5019264;28;20205;-68
2022/10/07 03:19:43;;;;;;;0.50;0.50;;;;;;;10.30;84.58;100487.13;5029013;28;20623;-68
2022/10/07 03:22:10;;;;;;;0.70;0.70;;;;;;;10.30;84.42;100489.69;5026760;28;20217;-68
2022/10/07 03:24:37;;;;;;;0.50;0.50;;;;;;;10.23;84.83;100485.47;5022376;28;20254;-66
2022/10/07 03:27:07;;;;;;;0.67;0.67;;;;;;;10.11;84.89;100467.66;5019447;28;20286;-68
2022/10/07 03:29:34;;;;;;;0.53;0.53;;;;;;;10.22;85.04;100491.47;5024146;28;20198;-68
2022/10/07 03:32:02;;;;;;;0.50;0.50;;;;;;;10.20;85.19;100488.09;5026873;28;20768;-68
2022/10/07 03:34:30;;;;;;;0.50;0.50;;;;;;;10.22;84.78;100485.47;5029296;28;20208;-68
2022/10/07 03:36:57;;;;;;;0.40;0.40;;;;;;;10.22;85.39;100486.34;5029980;28;20201;-68
2022/10/07 03:39:24;;;;;;;0.60;0.60;;;;;;;10.22;85.06;100488.91;5025559;28;20214;-68
2022/10/07 03:41:51;;;;;;;0.63;0.63;;;;;;;10.13;85.42;100496.66;5020481;28;20221;-67
2022/10/07 03:44:18;;;;;;;0.63;0.63;;;;;;;10.16;85.59;100496.66;5017526;28;20611;-69
2022/10/07 03:46:49;;;;;;;0.60;0.60;;;;;;;10.20;85.73;100493.22;5019739;28;20678;-68
2022/10/07 03:49:16;;;;;;;0.50;0.50;;;;;;;10.18;85.28;100489.78;5024248;28;20249;-68
2022/10/07 03:51:44;;;;;;;0.70;0.70;;;;;;;10.23;86.00;100493.16;5027025;28;20263;-68
2022/10/07 03:54:11;;;;;;;0.50;0.50;;;;;;;10.25;85.52;100491.44;5018107;28;20202;-68
2022/10/07 03:56:38;;;;;;;0.70;0.70;;;;;;;10.28;85.45;100496.50;5024681;28;20260;-68
2022/10/07 03:59:05;;;;;;;0.50;0.50;;;;;;;10.23;86.27;100495.72;5021985;28;20212;-69
2022/10/07 04:01:32;;;;;;;0.63;0.63;;;;;;;10.23;86.47;100498.28;5022132;28;20237;-68
2022/10/07 04:04:00;;;;;;;0.67;0.67;;;;;;;10.19;86.29;100488.09;5014265;28;20238;-67
2022/10/07 04:06:28;;;;;;;0.60;0.60;;;;;;;10.19;86.62;100494.06;5019841;28;20341;-67
2022/10/07 04:08:56;;;;;;;1.50;1.50;;;;;;;10.17;86.54;100489.81;5029811;28;20229;-68
2022/10/07 04:11:23;;;;;;;0.60;0.60;;;;;;;10.24;86.67;100505.09;5020451;28;20193;-67
2022/10/07 04:13:51;;;;;;;0.57;0.57;;;;;;;10.28;85.88;100513.59;5015710;28;20645;-67
2022/10/07 04:16:18;;;;;;;0.87;0.87;;;;;;;10.28;85.90;100504.19;5024660;28;20201;-68
2022/10/07 04:18:46;;;;;;;0.50;0.50;;;;;;;10.26;85.53;100503.38;5025186;28;20197;-68
2022/10/07 04:21:13;;;;;;;0.63;0.63;;;;;;;10.13;85.81;100488.97;5022638;28;20221;-69
2022/10/07 04:23:41;;;;;;;0.63;0.63;;;;;;;10.26;85.72;100502.53;5015493;28;20695;-68
2022/10/07 04:26:11;;;;;;;0.63;0.63;;;;;;;10.24;85.88;100510.22;5027645;28;20201;-67
2022/10/07 04:28:38;;;;;;;0.47;0.47;;;;;;;10.22;85.55;100508.53;5023481;28;20656;-69
2022/10/07 04:31:07;;;;;;;0.50;0.50;;;;;;;10.23;85.98;100518.81;5012123;28;20201;-68
2022/10/07 04:33:38;;;;;;;0.77;0.77;;;;;;;10.18;85.30;100510.28;5014845;28;20202;-68
2022/10/07 04:36:05;;;;;;;0.57;0.57;;;;;;;10.16;85.41;100516.31;5015796;28;20284;-68
2022/10/07 04:38:32;;;;;;;0.50;0.50;;;;;;;10.12;85.20;100506.91;5014710;28;20198;-68
2022/10/07 04:41:03;;;;;;;0.60;0.60;;;;;;;10.07;85.50;100512.09;5019697;28;20213;-68
2022/10/07 04:43:33;;;;;;;0.60;0.60;;;;;;;9.97;85.73;100515.63;5017596;28;20206;-68
2022/10/07 04:46:05;;;;;;;0.50;0.50;;;;;;;9.94;86.47;100513.09;5004459;28;20210;-68
2022/10/07 04:48:33;;;;;;;0.63;0.63;;;;;;;9.94;86.62;100513.09;5012226;28;20257;-68
2022/10/07 04:51:03;;;;;;;0.67;0.67;;;;;;;9.93;86.67;100513.94;5007577;28;20729;-68
2022/10/07 04:53:30;;;;;;;0.60;0.60;;;;;;;9.92;86.46;100514.81;5010527;28;20202;-68
2022/10/07 04:55:58;;;;;;;0.60;0.60;;;;;;;9.85;87.15;100513.19;5013986;28;20214;-68
2022/10/07 04:58:26;;;;;;;0.60;0.60;;;;;;;9.82;87.49;100520.91;5013863;28;20213;-67
2022/10/07 05:00:56;;;;;;;0.57;0.57;;;;;;;9.81;87.72;100529.44;5015170;28;20212;-69
2022/10/07 05:03:25;;;;;;;0.70;0.70;;;;;;;9.76;87.92;100531.16;5015880;28;20236;-68
2022/10/07 05:05:54;;;;;;;0.97;0.97;;;;;;;9.72;87.86;100529.53;5009573;28;20204;-68
2022/10/07 05:08:23;;;;;;;0.50;0.50;;;;;;;9.70;88.38;100528.66;5015922;28;20202;-68
2022/10/07 05:10:55;;;;;;;0.50;0.50;;;;;;;9.73;88.71;100531.19;5017041;28;20293;-69
2022/10/07 05:13:24;;;;;;;0.53;0.53;;;;;;;9.76;89.03;100529.47;5010510;28;20304;-68
2022/10/07 05:15:55;;;;;;;0.70;0.70;;;;;;;9.64;89.94;100526.16;5014039;28;20203;-68
2022/10/07 05:18:23;;;;;;;0.50;0.50;;;;;;;9.63;90.27;100532.16;5011673;28;20237;-68
2022/10/07 05:20:51;;;;;;;0.50;0.50;;;;;;;9.61;91.19;100533.88;5016343;28;20202;-68
2022/10/07 05:23:19;;;;;;;0.67;0.67;;;;;;;9.28;91.83;100492.31;5011797;28;20202;-68
2022/10/07 05:25:47;;;;;;;0.67;0.67;;;;;;;9.42;93.09;100516.09;5014853;28;20259;-69
2022/10/07 05:28:15;;;;;;;0.70;0.70;;;;;;;9.48;94.73;100535.69;5017639;28;20201;-68
2022/10/07 05:30:42;;;;;;;0.60;0.60;;;;;;;9.41;95.47;100546.81;5011443;28;20202;-69
2022/10/07 05:33:10;;;;;;;0.53;0.53;;;;;;;9.38;97.08;100544.28;5016833;28;20201;-69
2022/10/07 05:35:37;;;;;;;0.70;0.70;;;;;;;9.40;97.31;100543.41;5013151;28;20202;-67
2022/10/07 05:38:04;;;;;;;0.60;0.60;;;;;;;9.47;98.10;100544.22;5005756;28;20197;-68
2022/10/07 05:40:30;;;;;;;0.70;0.70;;;;;;;9.58;98.36;100546.69;5006857;28;20273;-68
2022/10/07 05:42:57;;;;;;;0.80;0.80;;;;;;;9.69;98.51;100544.91;5013493;28;20755;-69
2022/10/07 05:45:24;;;;;;;0.60;0.60;;;;;;;9.74;97.91;100548.28;5010709;28;20202;-71
2022/10/07 05:47:51;;;;;;;0.40;0.40;;;;;;;9.85;97.44;100554.16;5008960;28;20201;-69
2022/10/07 05:50:19;;;;;;;0.70;0.70;;;;;;;9.85;97.52;100533.69;5017316;28;20209;-70
2022/10/07 05:52:46;;;;;;;0.63;0.63;;;;;;;10.01;97.12;100548.03;5005600;28;20236;-70
2022/10/07 05:55:13;;;;;;;0.97;0.97;;;;;;;10.13;96.88;100547.91;5008147;28;20682;-70
2022/10/07 05:57:40;;;;;;;0.50;0.50;;;;;;;10.27;96.52;100551.22;5012673;28;20206;-70
2022/10/07 06:00:08;;;;;;;0.57;0.57;;;;;;;10.34;96.04;100552.81;5012027;28;20201;-70
2022/10/07 06:02:36;;;;;;;0.60;0.60;;;;;;;10.28;95.68;100524.72;5006867;28;20229;-67
2022/10/07 06:05:03;;;;;;;0.67;0.67;;;;;;;10.56;95.43;100547.47;5023298;28;20651;-68
2022/10/07 06:07:32;;;;;;;0.50;0.50;;;;;;;10.66;95.20;100543.94;5018051;28;20198;-68
2022/10/07 06:15:26;;;;;;;0.50;0.50;;;;;;;11.05;94.46;100551.94;5019223;28;20229;-70
2022/10/07 06:17:53;;;;;;;0.50;0.50;;;;;;;11.21;94.96;100555.13;5020727;28;20670;-71
2022/10/07 06:20:20;;;;;;;0.40;0.40;;;;;;;11.32;95.00;100553.28;5026701;28;20197;-68
2022/10/07 06:22:48;;;;;;;0.60;0.60;;;;;;;11.47;93.71;100553.03;5021642;28;20228;-69
2022/10/07 06:25:15;;;;;;;0.60;0.60;;;;;;;11.63;92.44;100548.53;5020946;28;20238;-69
2022/10/07 06:27:42;;;;;;;0.60;0.60;;;;;;;11.86;89.73;100553.28;5026198;28;21721;-69
2022/10/07 06:30:09;;;;;;;0.57;0.57;;;;;;;12.06;87.94;100551.22;5025463;28;20205;-69
2022/10/07 06:32:36;;;;;;;0.60;0.60;;;;;;;12.25;87.20;100552.59;5024860;28;20202;-69
2022/10/07 06:35:03;;;;;;;0.60;0.60;;;;;;;12.37;86.52;100554.97;5020877;28;20749;-68
2022/10/07 06:37:31;;;;;;;0.60;0.60;;;;;;;12.50;85.88;100538.38;5031238;28;20205;-70
2022/10/07 06:39:59;;;;;;;0.77;0.77;;;;;;;12.73;84.29;100557.69;5029594;28;20216;-70
2022/10/07 06:42:26;;;;;;;0.43;0.43;;;;;;;12.93;82.76;100550.38;5029439;28;20221;-70
2022/10/07 06:44:53;;;;;;;0.60;0.60;;;;;;;13.17;82.35;100547.31;5033080;28;20211;-69
2022/10/07 06:47:20;;;;;;;0.40;0.40;;;;;;;13.45;80.98;100544.94;5032691;28;20712;-70
2022/10/07 06:49:47;;;;;;;0.50;0.50;;;;;;;13.58;80.21;100552.34;5029952;28;20194;-69
2022/10/07 06:52:14;;;;;;;0.50;0.50;;;;;;;13.74;79.13;100552.81;5032397;28;20197;-69
2022/10/07 06:54:41;;;;;;;0.40;0.40;;;;;;;13.95;78.60;100547.13;5029161;28;20201;-69
2022/10/07 06:57:09;;;;;;;0.60;0.60;;;;;;;14.27;77.80;100551.44;5030578;28;20294;-70
2022/10/07 06:59:36;;;;;;;0.60;0.60;;;;;;;14.52;75.57;100538.72;5033831;28;20204;-69
2022/10/07 07:02:03;;;;;;;0.83;0.77;;;;;;;14.66;74.96;100521.97;5033750;28;20574;-69
2022/10/07 07:04:30;;;;;;;0.60;0.60;;;;;;;14.98;75.56;100551.16;5031022;28;20277;-71
2022/10/07 07:06:56;;;;;;;0.40;0.40;;;;;;;15.22;74.43;100555.56;5032794;28;20211;-68
2022/10/07 07:09:23;;;;;;;0.40;0.40;;;;;;;15.50;71.49;100548.69;5032355;28;20589;-69
2022/10/07 07:11:50;;;;;;;0.50;0.50;;;;;;;15.75;71.09;100556.50;5027606;28;20196;-69
2022/10/07 07:14:19;;;;;;;0.40;0.40;;;;;;;15.96;70.21;100557.53;5033575;28;20200;-70
2022/10/07 07:16:46;;;;;;;0.50;0.50;;;;;;;16.19;69.55;100557.56;5030434;28;20208;-68
2022/10/07 07:19:13;;;;;;;0.57;0.57;;;;;;;16.43;68.38;100563.63;5026211;28;20201;-71
2022/10/07 07:21:40;;;;;;;0.40;0.40;;;;;;;16.60;68.07;100557.00;5026554;28;20229;-70
2022/10/07 07:24:08;;;;;;;0.70;0.70;;;;;;;16.77;66.69;100549.44;5030666;28;20240;-70
2022/10/07 07:26:36;;;;;;;0.40;0.40;;;;;;;16.92;65.46;100547.19;5031394;28;20256;-70
2022/10/07 07:29:05;;;;;;;1.43;0.80;;;;;;;17.16;65.90;100534.13;5022025;28;20673;-70
2022/10/07 07:31:36;;;;;;;0.60;0.60;;;;;;;17.38;65.47;100536.72;5022516;28;20207;-70
2022/10/07 07:34:06;;;;;;;0.40;0.40;;;;;;;17.57;64.13;100542.91;5028506;28;20284;-69
2022/10/07 07:36:35;;;;;;;0.50;0.50;;;;;;;17.72;64.96;100547.44;5033293;28;20281;-69
2022/10/07 07:39:05;;;;;;;0.40;0.40;;;;;;;17.82;64.40;100543.56;5031416;28;20308;-69
2022/10/07 07:41:34;;;;;;;0.40;0.40;;;;;;;18.04;64.59;100542.66;5021269;28;20250;-69
2022/10/07 07:44:04;;;;;;;0.93;0.93;;;;;;;18.23;63.36;100540.94;5033629;28;20693;-68
2022/10/07 07:46:37;;;;;;;0.60;0.60;;;;;;;18.25;62.07;100521.84;5028672;28;20197;-69
2022/10/07 07:49:04;;;;;;;0.40;0.40;;;;;;;18.57;61.94;100533.41;5029172;28;20666;-69
2022/10/07 07:51:31;;;;;;;0.60;0.60;;;;;;;18.70;61.43;100533.69;5038346;28;20205;-70
2022/10/07 07:53:58;;;;;;;0.40;0.40;;;;;;;18.82;62.19;100539.19;5027423;28;20216;-69
2022/10/07 07:56:27;;;;;;;0.50;0.50;;;;;;;18.95;62.59;100530.81;5031501;28;20300;-71
2022/10/07 07:58:54;;;;;;;0.30;0.30;;;;;;;19.08;60.47;100530.16;5027098;28;20202;-71
2022/10/07 08:01:21;;;;;;;0.40;0.40;;;;;;;19.30;59.85;100528.22;5025542;28;20206;-71
2022/10/07 08:03:49;;;;;;;0.40;0.40;;;;;;;19.51;58.82;100529.00;5015342;28;20231;-71
2022/10/07 08:06:19;;;;;;;0.40;0.40;;;;;;;19.66;58.20;100538.63;5011651;28;20210;-71
2022/10/07 08:08:46;;;;;;;0.40;0.40;;;;;;;19.82;57.74;100523.94;5012521;28;20210;-71
2022/10/07 08:11:16;;;;;;;0.30;0.30;;;;;;;19.92;58.46;100530.38;5011854;28;20202;-70
2022/10/07 08:13:43;;;;;;;0.40;0.40;;;;;;;20.03;56.07;100529.00;5012130;28;20249;-71
2022/10/07 08:16:12;;;;;;;0.40;0.40;;;;;;;20.15;56.38;100525.75;5012531;28;20579;-71
2022/10/07 08:18:39;;;;;;;0.50;0.50;;;;;;;20.34;54.09;100527.34;5009888;28;20210;-71
2022/10/07 08:21:09;;;;;;;0.47;0.47;;;;;;;20.35;54.23;100496.94;5010377;28;20209;-71
2022/10/07 08:23:36;;;;;;;0.27;0.27;;;;;;;20.64;53.82;100517.09;5008352;28;20398;-70
2022/10/07 08:26:04;;;;;;;0.37;0.37;;;;;;;20.75;53.01;100514.72;5001641;28;20260;-71
2022/10/07 08:28:32;;;;;;;0.30;0.30;;;;;;;20.80;51.73;100504.91;5008796;28;20216;-71
2022/10/07 08:31:03;;;;;;;0.33;0.33;;;;;;;20.78;52.62;100488.50;5008954;28;20213;-71
2022/10/07 08:33:33;;;;;;;0.50;0.50;;;;;;;21.05;52.20;100488.72;5008992;28;20305;-71
2022/10/07 08:36:02;;;;;;;0.50;0.50;;;;;;;21.26;51.64;100492.75;5010828;28;20209;-72
2022/10/07 08:38:31;;;;;;;0.37;0.37;;;;;;;21.49;52.36;100498.47;5009463;28;20219;-70
2022/10/07 08:41:09;;;;;;;0.20;0.20;;;;;;;21.60;50.01;100490.84;5009196;28;20213;-71
2022/10/07 08:43:39;;;;;;;0.97;0.53;;;;;;;21.66;48.89;100490.47;5011797;28;20221;-71
2022/10/07 08:46:12;;;;;;;0.40;0.40;;;;;;;21.79;48.63;100492.28;5005061;28;20365;-72
2022/10/07 08:48:40;;;;;;;0.40;0.40;;;;;;;21.88;49.28;100488.28;5007389;28;20327;-72
2022/10/07 08:51:18;;;;;;;0.47;0.47;;;;;;;22.05;47.83;100492.53;5010448;28;20217;-72
2022/10/07 08:53:49;;;;;;;0.20;0.20;;;;;;;22.04;47.53;100486.47;5009303;28;20209;-72
2022/10/07 08:56:18;;;;;;;0.50;0.50;;;;;;;22.14;45.86;100481.50;5010829;28;20202;-73
2022/10/07 08:59:00;;;;;;;0.30;0.30;;;;;;;22.29;46.48;100475.38;5010905;28;20283;-72
2022/10/07 09:01:38;;;;;;;0.40;0.40;;;;;;;22.24;47.88;100466.97;5010741;28;20210;-72
2022/10/07 09:04:19;;;;;;;0.37;0.37;;;;;;;22.27;47.52;100472.00;5024543;28;20286;-72
2022/10/07 09:06:54;;;;;;;0.30;0.30;;;;;;;22.35;45.15;100467.16;5030249;28;20204;-72
2022/10/07 09:09:28;;;;;;;0.30;0.30;;;;;;;22.35;45.20;100459.31;5033576;28;20231;-72
2022/10/07 09:11:57;;;;;;;0.40;0.40;;;;;;;22.43;43.19;100457.91;5035836;28;20212;-72
2022/10/07 09:14:28;;;;;;;0.20;0.20;;;;;;;22.61;45.83;100458.53;5032864;28;20208;-72
2022/10/07 09:17:01;;;;;;;0.27;0.27;;;;;;;22.66;42.81;100438.19;5033116;28;20219;-72
2022/10/07 09:19:33;;;;;;;0.30;0.30;;;;;;;22.75;42.07;100452.44;5028734;28;20270;-72
2022/10/07 09:22:07;;;;;;;0.30;0.30;;;;;;;22.68;41.17;100436.31;5029360;28;20213;-72
2022/10/07 09:24:35;;;;;;;0.30;0.30;;;;;;;22.80;43.21;100435.56;5026149;28;20209;-72
2022/10/07 09:27:12;;;;;;;0.37;0.37;;;;;;;22.71;43.48;100415.22;5028921;28;20201;-72
2022/10/07 09:29:39;;;;;;;0.30;0.30;;;;;;;22.95;41.78;100439.78;5035049;28;20688;-72
2022/10/07 09:32:07;;;;;;;0.30;0.30;;;;;;;23.11;41.85;100428.31;5028753;28;20704;-72
2022/10/07 09:34:33;;;;;;;0.20;0.20;;;;;;;23.18;44.11;100429.59;5032029;28;20200;-72
2022/10/07 09:37:12;;;;;;;0.30;0.30;;;;;;;23.23;40.00;100422.31;5031798;28;20197;-71
2022/10/07 09:39:42;;;;;;;0.50;0.50;;;;;;;23.25;41.11;100420.41;5030173;28;20669;-72
2022/10/07 09:42:16;;;;;;;0.30;0.30;;;;;;;23.28;40.08;100420.19;5029747;28;20201;-72
2022/10/07 09:44:51;;;;;;;0.40;0.40;;;;;;;23.25;39.56;100416.03;5031076;28;20208;-72
2022/10/07 09:47:22;;;;;;;0.30;0.30;;;;;;;23.15;40.80;100404.47;5030633;28;20672;-72
2022/10/07 09:49:51;;;;;;;0.40;0.40;;;;;;;23.23;40.87;100406.59;5029946;28;20205;-72
2022/10/07 09:52:22;;;;;;;0.30;0.30;;;;;;;23.29;40.22;100398.34;5031920;28;20205;-72
2022/10/07 09:54:52;;;;;;;0.20;0.20;;;;;;;23.30;39.87;100402.59;5030981;28;20259;-72
2022/10/07 09:57:31;;;;;;;0.30;0.30;;;;;;;23.36;40.60;100397.00;5029303;28;20213;-71
2022/10/07 10:00:31;;;;;;;0.30;0.30;;;;;;;23.32;39.26;100385.06;5030348;28;20212;-71
2022/10/07 10:03:03;;;;;;;0.40;0.40;;;;;;;23.42;40.13;100381.75;4966446;28;20263;-72
2022/10/07 10:05:33;;;;;;;0.30;0.30;;;;;;;23.49;39.04;100376.91;4952787;28;20838;-70
2022/10/07 10:08:03;;;;;;;0.30;0.30;;;;;;;23.55;39.63;100379.13;4976780;28;20709;-71
2022/10/07 10:10:33;;;;;;;0.30;0.30;;;;;;;23.66;39.74;100379.22;5009394;28;20198;-71
2022/10/07 10:13:02;;;;;;;0.30;0.30;;;;;;;23.67;38.98;100369.59;5007761;28;20205;-70
2022/10/07 10:15:38;;;;;;;0.20;0.20;;;;;;;23.65;39.64;100359.22;5015807;28;20205;-72
2022/10/07 10:18:39;;;;;;;0.30;0.30;;;;;;;23.84;41.71;100357.03;5014327;28;20691;-71
2022/10/07 10:21:20;;;;;;;0.20;0.20;;;;;;;24.03;38.62;100351.31;5004266;28;20692;-71
2022/10/07 10:23:48;;;;;;;0.37;0.37;;;;;;;24.01;38.25;100338.31;5013211;28;20222;-71
2022/10/07 10:26:47;;;;;;;0.30;0.30;;;;;;;24.05;38.47;100342.41;5013131;28;20264;-70
2022/10/07 10:29:46;;;;;;;0.30;0.30;;;;;;;24.22;38.77;100335.16;5003893;28;20689;-70
2022/10/07 10:32:45;;;;;;;0.30;0.30;;;;;;;24.33;39.44;100337.84;5000954;28;20213;-71
2022/10/07 10:35:16;;;;;;;0.40;0.40;;;;;;;24.43;38.04;100333.59;5014062;28;20272;-71
2022/10/07 10:38:01;;;;;;;0.30;0.30;;;;;;;24.44;38.98;100332.66;5016613;28;20263;-71
2022/10/07 10:40:35;;;;;;;0.20;0.20;;;;;;;24.42;37.06;100329.31;5013093;28;20685;-72
2022/10/07 10:43:20;;;;;;;0.30;0.30;;;;;;;24.18;36.85;100317.97;5013451;28;20690;-72
2022/10/07 10:46:01;;;;;;;0.50;0.50;;;;;;;23.77;36.08;100271.97;5013890;28;20228;-71
2022/10/07 10:48:36;;;;;;;0.30;0.30;;;;;;;24.01;38.62;100301.66;5009328;28;20555;-72
2022/10/07 10:51:16;;;;;;;0.30;0.30;;;;;;;23.90;37.21;100300.75;5005938;28;20209;-72
2022/10/07 10:53:52;;;;;;;0.33;0.33;;;;;;;23.90;38.05;100293.72;5013891;28;20590;-72
2022/10/07 10:56:33;;;;;;;0.30;0.30;;;;;;;24.04;38.82;100290.94;5008516;28;20292;-71
2022/10/07 10:59:18;;;;;;;0.20;0.20;;;;;;;24.18;37.71;100286.53;5008796;28;20285;-72
2022/10/07 11:01:49;;;;;;;0.30;0.30;;;;;;;24.13;40.26;100267.69;5011161;28;20252;-71
2022/10/07 11:04:39;;;;;;;0.30;0.30;;;;;;;24.27;38.18;100285.84;5024905;28;20228;-72
2022/10/07 11:07:11;;;;;;;0.23;0.23;;;;;;;24.23;37.38;100279.19;5025638;28;20739;-71
2022/10/07 11:09:41;;;;;;;0.63;0.63;;;;;;;24.31;38.52;100274.22;5024884;28;20204;-72
2022/10/07 11:12:23;;;;;;;0.30;0.30;;;;;;;24.34;36.69;100268.75;5024215;28;20193;-72
2022/10/07 11:14:55;;;;;;;0.30;0.30;;;;;;;24.21;39.20;100265.34;5022433;28;20213;-72
2022/10/07 11:17:28;;;;;;;0.30;0.30;;;;;;;24.26;38.26;100268.47;5019609;28;20732;-72
2022/10/07 11:20:03;;;;;;;0.30;0.30;;;;;;;24.36;36.59;100269.50;5016005;28;20659;-71
2022/10/07 11:22:36;;;;;;;0.30;0.30;;;;;;;24.49;39.23;100254.53;5010506;28;20201;-72
2022/10/07 11:25:10;;;;;;;0.30;0.30;;;;;;;24.54;36.22;100255.00;5027427;28;20204;-72
2022/10/07 11:27:37;;;;;;;0.30;0.30;;;;;;;24.60;35.90;100254.56;5031267;28;20205;-71
2022/10/07 11:30:15;;;;;;;0.27;0.27;;;;;;;24.64;35.79;100253.38;5030614;28;20673;-72
2022/10/07 11:32:49;;;;;;;0.27;0.27;;;;;;;24.67;35.03;100249.69;5012656;28;20205;-71
2022/10/07 11:35:25;;;;;;;0.30;0.30;;;;;;;24.69;34.66;100245.16;5021483;28;20205;-71
2022/10/07 11:37:58;;;;;;;0.30;0.30;;;;;;;24.43;34.06;100244.47;5026239;28;20212;-71
2022/10/07 11:40:30;;;;;;;0.20;0.20;;;;;;;24.23;34.83;100242.50;5017253;28;20202;-71
2022/10/07 11:42:59;;;;;;;0.30;0.30;;;;;;;24.29;35.78;100231.56;5017116;28;20740;-72
2022/10/07 11:45:33;;;;;;;0.30;0.30;;;;;;;24.29;34.16;100232.41;5021756;28;20213;-71
2022/10/07 11:48:06;;;;;;;0.30;0.30;;;;;;;24.27;35.22;100230.81;5018531;28;20205;-71